sensor_id;sensor_type;location;lat;lon;timestamp;temperature;humidity
22153;DHT22;11242;50.536;12.688;2023-08-12T00:01:39;14.20;99.90
22153;DHT22;11242;50.536;12.688;2023-08-12T00:04:05;14.20;99.90
22153;DHT22;11242;50.536;12.688;2023-08-12T00:06:30;14.10;99.90
22153;DHT22;11242;50.536;12.688;2023-08-12T00:08:56;14.10;99.90
22153;DHT22;11242;50.536;12.688;2023-08-12T00:11:22;14.00;99.90
22153;DHT22;11242;50.536;12.688;2023-08-12T00:13:47;14.10;99.90
22153;DHT22;11242;50.536;12.688;2023-08-12T00:16:13;14.10;99.90
22153;DHT22;11242;50.536;12.688;2023-08-12T00:18:39;14.00;99.90
22153;DHT22;11242;50.536;12.688;2023-08-12T00:21:08;14.00;99.90
22153;DHT22;11242;50.536;12.688;2023-08-12T00:23:39;14.00;99.90
22153;DHT22;11242;50.536;12.688;2023-08-12T00:26:10;14.00;99.90
22153;DHT22;11242;50.536;12.688;2023-08-12T00:28:36;14.00;99.90
22153;DHT22;11242;50.536;12.688;2023-08-12T00:31:02;13.90;99.90
22153;DHT22;11242;50.536;12.688;2023-08-12T00:33:28;13.90;99.90
22153;DHT22;11242;50.536;12.688;2023-08-12T00:35:54;13.90;99.90
22153;DHT22;11242;50.536;12.688;2023-08-12T00:38:20;13.90;99.90
22153;DHT22;11242;50.536;12.688;2023-08-12T00:40:47;13.90;99.90
22153;DHT22;11242;50.536;12.688;2023-08-12T00:43:12;13.90;99.90
22153;DHT22;11242;50.536;12.688;2023-08-12T00:45:38;14.00;99.90
22153;DHT22;11242;50.536;12.688;2023-08-12T00:48:05;14.00;99.90
22153;DHT22;11242;50.536;12.688;2023-08-12T00:50:35;14.10;99.90
22153;DHT22;11242;50.536;12.688;2023-08-12T00:53:01;14.20;99.90
22153;DHT22;11242;50.536;12.688;2023-08-12T00:55:27;14.20;99.90
22153;DHT22;11242;50.536;12.688;2023-08-12T00:57:52;14.20;99.90
22153;DHT22;11242;50.536;12.688;2023-08-12T01:00:19;14.20;99.90
22153;DHT22;11242;50.536;12.688;2023-08-12T01:02:46;14.20;99.90
22153;DHT22;11242;50.536;12.688;2023-08-12T01:05:14;14.30;99.90
22153;DHT22;11242;50.536;12.688;2023-08-12T01:07:42;14.30;99.90
22153;DHT22;11242;50.536;12.688;2023-08-12T01:10:08;14.30;99.90
22153;DHT22;11242;50.536;12.688;2023-08-12T01:13:14;14.30;99.90
22153;DHT22;11242;50.536;12.688;2023-08-12T01:15:43;14.30;99.90
22153;DHT22;11242;50.536;12.688;2023-08-12T01:18:10;14.30;99.90
22153;DHT22;11242;50.536;12.688;2023-08-12T01:20:36;14.40;99.90
22153;DHT22;11242;50.536;12.688;2023-08-12T01:23:10;14.30;99.90
22153;DHT22;11242;50.536;12.688;2023-08-12T01:25:36;14.30;99.90
22153;DHT22;11242;50.536;12.688;2023-08-12T01:28:02;14.30;99.90
22153;DHT22;11242;50.536;12.688;2023-08-12T01:30:29;14.30;99.90
22153;DHT22;11242;50.536;12.688;2023-08-12T01:33:14;14.20;99.90
22153;DHT22;11242;50.536;12.688;2023-08-12T01:35:49;14.10;99.90
22153;DHT22;11242;50.536;12.688;2023-08-12T01:38:19;14.10;99.90
22153;DHT22;11242;50.536;12.688;2023-08-12T01:40:45;14.00;99.90
22153;DHT22;11242;50.536;12.688;2023-08-12T01:43:12;14.00;99.90
22153;DHT22;11242;50.536;12.688;2023-08-12T01:45:37;14.00;99.90
22153;DHT22;11242;50.536;12.688;2023-08-12T01:48:04;13.90;99.90
22153;DHT22;11242;50.536;12.688;2023-08-12T01:50:30;13.90;99.90
22153;DHT22;11242;50.536;12.688;2023-08-12T01:52:56;13.90;99.90
22153;DHT22;11242;50.536;12.688;2023-08-12T01:55:21;13.80;99.90
22153;DHT22;11242;50.536;12.688;2023-08-12T01:57:48;13.80;99.90
22153;DHT22;11242;50.536;12.688;2023-08-12T02:00:14;13.80;99.90
22153;DHT22;11242;50.536;12.688;2023-08-12T02:02:43;13.80;99.90
22153;DHT22;11242;50.536;12.688;2023-08-12T02:05:11;13.80;99.90
22153;DHT22;11242;50.536;12.688;2023-08-12T02:07:38;13.70;99.90
22153;DHT22;11242;50.536;12.688;2023-08-12T02:10:04;13.80;99.90
22153;DHT22;11242;50.536;12.688;2023-08-12T02:12:31;13.70;99.90
22153;DHT22;11242;50.536;12.688;2023-08-12T02:14:57;13.80;99.90
22153;DHT22;11242;50.536;12.688;2023-08-12T02:17:23;13.70;99.90
22153;DHT22;11242;50.536;12.688;2023-08-12T02:19:51;13.70;99.90
22153;DHT22;11242;50.536;12.688;2023-08-12T02:22:17;13.70;99.90
22153;DHT22;11242;50.536;12.688;2023-08-12T02:24:42;13.70;99.90
22153;DHT22;11242;50.536;12.688;2023-08-12T02:27:08;13.80;99.90
22153;DHT22;11242;50.536;12.688;2023-08-12T02:29:34;13.70;99.90
22153;DHT22;11242;50.536;12.688;2023-08-12T02:32:00;13.80;99.90
22153;DHT22;11242;50.536;12.688;2023-08-12T02:34:26;13.80;99.90
22153;DHT22;11242;50.536;12.688;2023-08-12T02:36:51;13.80;99.90
22153;DHT22;11242;50.536;12.688;2023-08-12T02:39:17;13.80;99.90
22153;DHT22;11242;50.536;12.688;2023-08-12T02:41:43;13.80;99.90
22153;DHT22;11242;50.536;12.688;2023-08-12T02:44:08;13.70;99.90
22153;DHT22;11242;50.536;12.688;2023-08-12T02:46:34;13.70;99.90
22153;DHT22;11242;50.536;12.688;2023-08-12T02:49:00;13.60;99.90
22153;DHT22;11242;50.536;12.688;2023-08-12T02:51:25;13.60;99.90
22153;DHT22;11242;50.536;12.688;2023-08-12T02:53:51;13.60;99.90
22153;DHT22;11242;50.536;12.688;2023-08-12T02:56:17;13.80;99.90
22153;DHT22;11242;50.536;12.688;2023-08-12T02:58:42;13.90;99.90
22153;DHT22;11242;50.536;12.688;2023-08-12T03:01:08;14.10;99.90
22153;DHT22;11242;50.536;12.688;2023-08-12T03:03:34;14.20;99.90
22153;DHT22;11242;50.536;12.688;2023-08-12T03:06:00;14.30;99.90
22153;DHT22;11242;50.536;12.688;2023-08-12T03:08:27;14.30;99.90
22153;DHT22;11242;50.536;12.688;2023-08-12T03:11:03;14.30;99.90
22153;DHT22;11242;50.536;12.688;2023-08-12T03:13:30;14.40;99.90
22153;DHT22;11242;50.536;12.688;2023-08-12T03:15:56;14.40;99.90
22153;DHT22;11242;50.536;12.688;2023-08-12T03:18:23;14.40;99.90
22153;DHT22;11242;50.536;12.688;2023-08-12T03:20:49;14.30;99.90
22153;DHT22;11242;50.536;12.688;2023-08-12T03:23:17;14.30;99.90
22153;DHT22;11242;50.536;12.688;2023-08-12T03:25:43;14.30;99.90
22153;DHT22;11242;50.536;12.688;2023-08-12T03:28:09;14.30;99.90
22153;DHT22;11242;50.536;12.688;2023-08-12T03:30:35;14.20;99.90
22153;DHT22;11242;50.536;12.688;2023-08-12T03:33:01;14.10;99.90
22153;DHT22;11242;50.536;12.688;2023-08-12T03:35:31;14.20;99.90
22153;DHT22;11242;50.536;12.688;2023-08-12T03:37:58;14.20;99.90
22153;DHT22;11242;50.536;12.688;2023-08-12T03:40:24;14.20;99.90
22153;DHT22;11242;50.536;12.688;2023-08-12T03:42:49;14.20;99.90
22153;DHT22;11242;50.536;12.688;2023-08-12T03:45:18;14.20;99.90
22153;DHT22;11242;50.536;12.688;2023-08-12T03:47:46;14.20;99.90
22153;DHT22;11242;50.536;12.688;2023-08-12T03:50:11;14.10;99.90
22153;DHT22;11242;50.536;12.688;2023-08-12T03:52:37;14.20;99.90
22153;DHT22;11242;50.536;12.688;2023-08-12T03:55:03;14.40;99.90
22153;DHT22;11242;50.536;12.688;2023-08-12T03:57:29;14.60;99.90
22153;DHT22;11242;50.536;12.688;2023-08-12T03:59:57;14.70;99.90
22153;DHT22;11242;50.536;12.688;2023-08-12T04:02:23;14.70;99.90
22153;DHT22;11242;50.536;12.688;2023-08-12T04:04:49;14.70;99.90
22153;DHT22;11242;50.536;12.688;2023-08-12T04:07:14;14.70;99.90
22153;DHT22;11242;50.536;12.688;2023-08-12T04:09:41;14.70;99.90
22153;DHT22;11242;50.536;12.688;2023-08-12T04:12:07;14.80;99.90
22153;DHT22;11242;50.536;12.688;2023-08-12T04:14:32;14.80;99.90
22153;DHT22;11242;50.536;12.688;2023-08-12T04:16:58;14.80;99.90
22153;DHT22;11242;50.536;12.688;2023-08-12T04:19:24;14.90;99.90
22153;DHT22;11242;50.536;12.688;2023-08-12T04:21:50;14.90;99.90
22153;DHT22;11242;50.536;12.688;2023-08-12T04:24:16;15.00;99.90
22153;DHT22;11242;50.536;12.688;2023-08-12T04:26:42;15.00;99.90
22153;DHT22;11242;50.536;12.688;2023-08-12T04:29:09;15.10;99.90
22153;DHT22;11242;50.536;12.688;2023-08-12T04:31:37;15.20;99.90
22153;DHT22;11242;50.536;12.688;2023-08-12T04:34:03;15.20;99.90
22153;DHT22;11242;50.536;12.688;2023-08-12T04:36:30;15.40;99.90
22153;DHT22;11242;50.536;12.688;2023-08-12T04:38:56;15.50;99.90
22153;DHT22;11242;50.536;12.688;2023-08-12T04:41:22;15.70;99.90
22153;DHT22;11242;50.536;12.688;2023-08-12T04:43:50;15.90;99.90
22153;DHT22;11242;50.536;12.688;2023-08-12T04:46:16;16.10;99.90
22153;DHT22;11242;50.536;12.688;2023-08-12T04:48:44;16.30;99.90
22153;DHT22;11242;50.536;12.688;2023-08-12T04:51:11;16.40;99.90
22153;DHT22;11242;50.536;12.688;2023-08-12T04:53:37;16.60;99.90
22153;DHT22;11242;50.536;12.688;2023-08-12T04:56:02;16.80;99.90
22153;DHT22;11242;50.536;12.688;2023-08-12T04:58:28;16.90;99.90
22153;DHT22;11242;50.536;12.688;2023-08-12T05:00:54;17.00;99.90
22153;DHT22;11242;50.536;12.688;2023-08-12T05:03:21;17.00;99.90
22153;DHT22;11242;50.536;12.688;2023-08-12T05:05:50;17.10;99.90
22153;DHT22;11242;50.536;12.688;2023-08-12T05:08:16;17.30;99.90
22153;DHT22;11242;50.536;12.688;2023-08-12T05:10:42;17.50;99.90
22153;DHT22;11242;50.536;12.688;2023-08-12T05:13:09;17.50;99.90
22153;DHT22;11242;50.536;12.688;2023-08-12T05:15:34;17.70;99.90
22153;DHT22;11242;50.536;12.688;2023-08-12T05:18:03;18.30;99.90
22153;DHT22;11242;50.536;12.688;2023-08-12T05:20:29;19.00;99.90
22153;DHT22;11242;50.536;12.688;2023-08-12T05:22:54;19.00;99.90
22153;DHT22;11242;50.536;12.688;2023-08-12T05:25:20;18.70;99.90
22153;DHT22;11242;50.536;12.688;2023-08-12T05:27:46;18.50;99.90
22153;DHT22;11242;50.536;12.688;2023-08-12T05:30:12;18.60;99.90
22153;DHT22;11242;50.536;12.688;2023-08-12T05:32:38;20.40;99.90
22153;DHT22;11242;50.536;12.688;2023-08-12T05:35:03;20.90;99.90
22153;DHT22;11242;50.536;12.688;2023-08-12T05:37:29;20.50;99.90
22153;DHT22;11242;50.536;12.688;2023-08-12T05:39:55;19.90;99.90
22153;DHT22;11242;50.536;12.688;2023-08-12T05:42:20;19.90;99.90
22153;DHT22;11242;50.536;12.688;2023-08-12T05:44:46;20.30;99.90
22153;DHT22;11242;50.536;12.688;2023-08-12T05:47:12;22.10;99.90
22153;DHT22;11242;50.536;12.688;2023-08-12T05:49:37;23.90;99.90
22153;DHT22;11242;50.536;12.688;2023-08-12T05:52:04;26.10;99.90
22153;DHT22;11242;50.536;12.688;2023-08-12T05:54:30;27.70;99.90
22153;DHT22;11242;50.536;12.688;2023-08-12T05:56:55;29.20;99.10
22153;DHT22;11242;50.536;12.688;2023-08-12T05:59:21;30.00;93.30
22153;DHT22;11242;50.536;12.688;2023-08-12T06:01:47;31.30;89.20
22153;DHT22;11242;50.536;12.688;2023-08-12T06:04:12;31.30;84.90
22153;DHT22;11242;50.536;12.688;2023-08-12T06:06:38;32.40;77.80
22153;DHT22;11242;50.536;12.688;2023-08-12T06:09:03;32.90;77.10
22153;DHT22;11242;50.536;12.688;2023-08-12T06:11:29;32.60;77.30
22153;DHT22;11242;50.536;12.688;2023-08-12T06:13:55;33.60;72.40
22153;DHT22;11242;50.536;12.688;2023-08-12T06:16:20;33.50;70.60
22153;DHT22;11242;50.536;12.688;2023-08-12T06:18:46;34.90;66.10
22153;DHT22;11242;50.536;12.688;2023-08-12T06:21:12;36.60;59.20
22153;DHT22;11242;50.536;12.688;2023-08-12T06:23:39;37.30;57.10
22153;DHT22;11242;50.536;12.688;2023-08-12T06:26:04;37.40;55.50
22153;DHT22;11242;50.536;12.688;2023-08-12T06:28:30;37.90;51.90
22153;DHT22;11242;50.536;12.688;2023-08-12T06:30:58;36.50;52.00
22153;DHT22;11242;50.536;12.688;2023-08-12T06:33:23;36.00;52.90
22153;DHT22;11242;50.536;12.688;2023-08-12T06:35:50;35.30;54.40
22153;DHT22;11242;50.536;12.688;2023-08-12T06:38:16;33.50;55.50
22153;DHT22;11242;50.536;12.688;2023-08-12T06:40:42;32.60;55.90
22153;DHT22;11242;50.536;12.688;2023-08-12T06:43:07;32.60;55.10
22153;DHT22;11242;50.536;12.688;2023-08-12T06:45:34;32.20;57.10
22153;DHT22;11242;50.536;12.688;2023-08-12T06:48:00;31.70;58.00
22153;DHT22;11242;50.536;12.688;2023-08-12T06:50:27;32.10;56.30
22153;DHT22;11242;50.536;12.688;2023-08-12T06:52:53;32.40;56.40
22153;DHT22;11242;50.536;12.688;2023-08-12T06:55:19;33.00;54.40
22153;DHT22;11242;50.536;12.688;2023-08-12T06:57:44;34.10;53.40
22153;DHT22;11242;50.536;12.688;2023-08-12T07:00:11;35.40;53.60
22153;DHT22;11242;50.536;12.688;2023-08-12T07:02:37;34.80;50.40
22153;DHT22;11242;50.536;12.688;2023-08-12T07:05:03;33.90;52.10
22153;DHT22;11242;50.536;12.688;2023-08-12T07:07:29;33.90;50.30
22153;DHT22;11242;50.536;12.688;2023-08-12T07:09:55;33.40;50.40
22153;DHT22;11242;50.536;12.688;2023-08-12T07:12:21;33.50;51.90
22153;DHT22;11242;50.536;12.688;2023-08-12T07:14:47;34.40;50.10
22153;DHT22;11242;50.536;12.688;2023-08-12T07:17:14;34.00;49.50
22153;DHT22;11242;50.536;12.688;2023-08-12T07:19:40;33.70;50.20
22153;DHT22;11242;50.536;12.688;2023-08-12T07:22:06;33.70;50.20
22153;DHT22;11242;50.536;12.688;2023-08-12T07:24:32;34.70;49.50
22153;DHT22;11242;50.536;12.688;2023-08-12T07:26:58;35.60;48.20
22153;DHT22;11242;50.536;12.688;2023-08-12T07:29:23;35.90;48.30
22153;DHT22;11242;50.536;12.688;2023-08-12T07:31:49;34.70;47.90
22153;DHT22;11242;50.536;12.688;2023-08-12T07:34:15;34.10;48.40
22153;DHT22;11242;50.536;12.688;2023-08-12T07:36:41;33.40;49.70
22153;DHT22;11242;50.536;12.688;2023-08-12T07:39:07;33.20;49.20
22153;DHT22;11242;50.536;12.688;2023-08-12T07:41:32;33.30;50.60
22153;DHT22;11242;50.536;12.688;2023-08-12T07:43:59;33.00;50.30
22153;DHT22;11242;50.536;12.688;2023-08-12T07:46:24;33.60;49.90
22153;DHT22;11242;50.536;12.688;2023-08-12T07:48:50;33.90;49.60
22153;DHT22;11242;50.536;12.688;2023-08-12T07:51:16;34.20;48.50
22153;DHT22;11242;50.536;12.688;2023-08-12T07:53:41;33.80;48.90
22153;DHT22;11242;50.536;12.688;2023-08-12T07:56:07;33.20;48.50
22153;DHT22;11242;50.536;12.688;2023-08-12T07:58:34;31.30;51.60
22153;DHT22;11242;50.536;12.688;2023-08-12T08:00:59;31.00;53.20
22153;DHT22;11242;50.536;12.688;2023-08-12T08:03:25;30.40;53.80
22153;DHT22;11242;50.536;12.688;2023-08-12T08:05:51;29.40;54.30
22153;DHT22;11242;50.536;12.688;2023-08-12T08:08:18;29.50;55.00
22153;DHT22;11242;50.536;12.688;2023-08-12T08:10:43;30.10;54.40
22153;DHT22;11242;50.536;12.688;2023-08-12T08:13:09;29.80;54.40
22153;DHT22;11242;50.536;12.688;2023-08-12T08:15:35;29.10;55.90
22153;DHT22;11242;50.536;12.688;2023-08-12T08:18:00;29.30;56.00
22153;DHT22;11242;50.536;12.688;2023-08-12T08:20:27;29.20;56.60
22153;DHT22;11242;50.536;12.688;2023-08-12T08:22:52;29.80;55.50
22153;DHT22;11242;50.536;12.688;2023-08-12T08:25:21;30.10;55.40
22153;DHT22;11242;50.536;12.688;2023-08-12T08:27:47;29.90;54.90
22153;DHT22;11242;50.536;12.688;2023-08-12T08:30:13;29.80;55.00
22153;DHT22;11242;50.536;12.688;2023-08-12T08:32:38;29.70;55.60
22153;DHT22;11242;50.536;12.688;2023-08-12T08:35:05;29.60;56.10
22153;DHT22;11242;50.536;12.688;2023-08-12T08:37:31;28.90;56.20
22153;DHT22;11242;50.536;12.688;2023-08-12T08:39:56;28.70;57.90
22153;DHT22;11242;50.536;12.688;2023-08-12T08:42:24;29.00;57.30
22153;DHT22;11242;50.536;12.688;2023-08-12T08:44:53;30.10;55.90
22153;DHT22;11242;50.536;12.688;2023-08-12T08:47:26;29.80;55.20
22153;DHT22;11242;50.536;12.688;2023-08-12T08:49:57;30.00;56.10
22153;DHT22;11242;50.536;12.688;2023-08-12T08:52:23;30.00;55.60
22153;DHT22;11242;50.536;12.688;2023-08-12T08:54:50;30.30;56.10
22153;DHT22;11242;50.536;12.688;2023-08-12T08:57:16;30.70;55.40
22153;DHT22;11242;50.536;12.688;2023-08-12T08:59:42;30.50;54.80
22153;DHT22;11242;50.536;12.688;2023-08-12T09:02:16;30.20;55.60
22153;DHT22;11242;50.536;12.688;2023-08-12T09:04:47;29.90;54.90
22153;DHT22;11242;50.536;12.688;2023-08-12T09:07:13;28.90;56.90
22153;DHT22;11242;50.536;12.688;2023-08-12T09:09:45;28.90;56.40
22153;DHT22;11242;50.536;12.688;2023-08-12T09:12:15;28.90;56.90
22153;DHT22;11242;50.536;12.688;2023-08-12T09:14:43;29.20;56.60
22153;DHT22;11242;50.536;12.688;2023-08-12T09:17:10;29.40;56.90
22153;DHT22;11242;50.536;12.688;2023-08-12T09:19:36;29.60;56.30
22153;DHT22;11242;50.536;12.688;2023-08-12T09:22:06;29.80;56.60
22153;DHT22;11242;50.536;12.688;2023-08-12T09:24:32;29.60;56.60
22153;DHT22;11242;50.536;12.688;2023-08-12T09:26:58;29.50;56.60
22153;DHT22;11242;50.536;12.688;2023-08-12T09:29:29;29.00;56.00
22153;DHT22;11242;50.536;12.688;2023-08-12T09:34:53;28.60;57.50
22153;DHT22;11242;50.536;12.688;2023-08-12T09:37:20;28.70;57.70
22153;DHT22;11242;50.536;12.688;2023-08-12T09:39:48;28.70;57.20
22153;DHT22;11242;50.536;12.688;2023-08-12T09:42:15;28.60;57.40
22153;DHT22;11242;50.536;12.688;2023-08-12T09:44:41;28.50;57.10
22153;DHT22;11242;50.536;12.688;2023-08-12T09:47:09;28.20;57.30
22153;DHT22;11242;50.536;12.688;2023-08-12T09:49:35;28.40;57.60
22153;DHT22;11242;50.536;12.688;2023-08-12T09:52:02;28.90;56.70
22153;DHT22;11242;50.536;12.688;2023-08-12T09:54:28;28.70;57.00
22153;DHT22;11242;50.536;12.688;2023-08-12T09:56:59;28.40;56.20
22153;DHT22;11242;50.536;12.688;2023-08-12T09:59:34;28.50;57.40
22153;DHT22;11242;50.536;12.688;2023-08-12T10:02:02;28.40;55.70
22153;DHT22;11242;50.536;12.688;2023-08-12T10:04:53;28.10;56.50
22153;DHT22;11242;50.536;12.688;2023-08-12T10:07:23;28.00;56.30
22153;DHT22;11242;50.536;12.688;2023-08-12T10:09:49;27.80;57.40
22153;DHT22;11242;50.536;12.688;2023-08-12T10:12:26;27.70;57.60
22153;DHT22;11242;50.536;12.688;2023-08-12T10:15:17;27.80;58.40
22153;DHT22;11242;50.536;12.688;2023-08-12T10:18:32;28.00;58.50
22153;DHT22;11242;50.536;12.688;2023-08-12T10:21:43;27.80;59.50
22153;DHT22;11242;50.536;12.688;2023-08-12T10:24:34;27.50;60.80
22153;DHT22;11242;50.536;12.688;2023-08-12T10:27:26;27.70;60.00
22153;DHT22;11242;50.536;12.688;2023-08-12T10:30:30;27.70;60.80
22153;DHT22;11242;50.536;12.688;2023-08-12T10:33:29;27.50;60.70
22153;DHT22;11242;50.536;12.688;2023-08-12T10:36:15;27.60;60.50
22153;DHT22;11242;50.536;12.688;2023-08-12T10:38:58;27.80;58.60
22153;DHT22;11242;50.536;12.688;2023-08-12T10:41:51;28.10;58.20
22153;DHT22;11242;50.536;12.688;2023-08-12T10:44:51;28.10;58.20
22153;DHT22;11242;50.536;12.688;2023-08-12T10:47:53;28.20;57.50
22153;DHT22;11242;50.536;12.688;2023-08-12T10:51:07;28.30;57.80
22153;DHT22;11242;50.536;12.688;2023-08-12T10:54:21;28.10;57.90
22153;DHT22;11242;50.536;12.688;2023-08-12T10:57:15;28.10;57.60
22153;DHT22;11242;50.536;12.688;2023-08-12T10:59:54;28.10;58.00
22153;DHT22;11242;50.536;12.688;2023-08-12T11:02:37;28.50;57.70
22153;DHT22;11242;50.536;12.688;2023-08-12T11:05:35;29.10;57.80
22153;DHT22;11242;50.536;12.688;2023-08-12T11:08:48;29.40;56.20
22153;DHT22;11242;50.536;12.688;2023-08-12T11:11:38;29.20;56.70
22153;DHT22;11242;50.536;12.688;2023-08-12T11:14:48;29.30;56.80
22153;DHT22;11242;50.536;12.688;2023-08-12T11:17:15;29.10;56.80
22153;DHT22;11242;50.536;12.688;2023-08-12T11:19:42;29.00;56.00
22153;DHT22;11242;50.536;12.688;2023-08-12T11:22:09;28.60;55.40
22153;DHT22;11242;50.536;12.688;2023-08-12T11:24:40;28.30;56.70
22153;DHT22;11242;50.536;12.688;2023-08-12T11:27:09;28.60;56.00
22153;DHT22;11242;50.536;12.688;2023-08-12T11:29:37;29.00;56.10
22153;DHT22;11242;50.536;12.688;2023-08-12T11:32:05;29.00;56.10
22153;DHT22;11242;50.536;12.688;2023-08-12T11:34:31;29.10;55.80
22153;DHT22;11242;50.536;12.688;2023-08-12T11:36:59;29.30;55.50
22153;DHT22;11242;50.536;12.688;2023-08-12T11:39:27;29.10;57.40
22153;DHT22;11242;50.536;12.688;2023-08-12T11:41:53;29.50;56.60
22153;DHT22;11242;50.536;12.688;2023-08-12T11:44:22;30.00;55.80
22153;DHT22;11242;50.536;12.688;2023-08-12T11:46:49;30.50;54.90
22153;DHT22;11242;50.536;12.688;2023-08-12T11:49:16;30.90;54.70
22153;DHT22;11242;50.536;12.688;2023-08-12T11:51:44;31.60;53.10
22153;DHT22;11242;50.536;12.688;2023-08-12T11:54:12;31.70;51.90
22153;DHT22;11242;50.536;12.688;2023-08-12T11:56:38;31.20;52.00
22153;DHT22;11242;50.536;12.688;2023-08-12T11:59:05;31.00;51.80
22153;DHT22;11242;50.536;12.688;2023-08-12T12:01:31;30.50;51.80
22153;DHT22;11242;50.536;12.688;2023-08-12T12:03:59;30.20;52.20
22153;DHT22;11242;50.536;12.688;2023-08-12T12:06:30;30.20;52.50
22153;DHT22;11242;50.536;12.688;2023-08-12T12:08:59;30.30;53.30
22153;DHT22;11242;50.536;12.688;2023-08-12T12:11:30;30.20;53.20
22153;DHT22;11242;50.536;12.688;2023-08-12T12:13:56;30.10;53.40
22153;DHT22;11242;50.536;12.688;2023-08-12T12:16:22;29.40;53.00
22153;DHT22;11242;50.536;12.688;2023-08-12T12:18:48;29.10;55.30
22153;DHT22;11242;50.536;12.688;2023-08-12T12:21:20;29.10;54.80
22153;DHT22;11242;50.536;12.688;2023-08-12T12:23:47;29.20;55.10
22153;DHT22;11242;50.536;12.688;2023-08-12T12:26:12;29.10;54.40
22153;DHT22;11242;50.536;12.688;2023-08-12T12:28:38;28.90;54.60
22153;DHT22;11242;50.536;12.688;2023-08-12T12:31:04;29.10;54.20
22153;DHT22;11242;50.536;12.688;2023-08-12T12:33:34;28.80;54.70
22153;DHT22;11242;50.536;12.688;2023-08-12T12:35:59;28.40;55.10
22153;DHT22;11242;50.536;12.688;2023-08-12T12:38:25;28.00;55.80
22153;DHT22;11242;50.536;12.688;2023-08-12T12:40:51;28.20;56.70
22153;DHT22;11242;50.536;12.688;2023-08-12T12:43:18;28.20;56.80
22153;DHT22;11242;50.536;12.688;2023-08-12T12:45:44;28.30;56.20
22153;DHT22;11242;50.536;12.688;2023-08-12T12:48:09;28.50;57.00
22153;DHT22;11242;50.536;12.688;2023-08-12T12:50:35;29.00;57.60
22153;DHT22;11242;50.536;12.688;2023-08-12T12:53:03;29.20;56.10
22153;DHT22;11242;50.536;12.688;2023-08-12T12:55:29;29.40;55.40
22153;DHT22;11242;50.536;12.688;2023-08-12T12:57:54;29.40;55.10
22153;DHT22;11242;50.536;12.688;2023-08-12T13:00:20;29.30;55.90
22153;DHT22;11242;50.536;12.688;2023-08-12T13:02:46;29.30;56.20
22153;DHT22;11242;50.536;12.688;2023-08-12T13:05:12;29.30;54.80
22153;DHT22;11242;50.536;12.688;2023-08-12T13:07:38;29.10;55.60
22153;DHT22;11242;50.536;12.688;2023-08-12T13:10:04;29.20;54.90
22153;DHT22;11242;50.536;12.688;2023-08-12T13:12:29;29.40;56.20
22153;DHT22;11242;50.536;12.688;2023-08-12T13:14:55;29.60;56.10
22153;DHT22;11242;50.536;12.688;2023-08-12T13:17:22;29.50;55.50
22153;DHT22;11242;50.536;12.688;2023-08-12T13:19:50;29.80;56.50
22153;DHT22;11242;50.536;12.688;2023-08-12T13:22:16;30.10;54.30
22153;DHT22;11242;50.536;12.688;2023-08-12T13:24:42;29.90;54.90
22153;DHT22;11242;50.536;12.688;2023-08-12T13:27:07;29.50;55.20
22153;DHT22;11242;50.536;12.688;2023-08-12T13:29:33;29.30;55.90
22153;DHT22;11242;50.536;12.688;2023-08-12T13:31:59;29.30;56.40
22153;DHT22;11242;50.536;12.688;2023-08-12T13:34:25;28.80;56.30
22153;DHT22;11242;50.536;12.688;2023-08-12T13:36:51;28.80;56.00
22153;DHT22;11242;50.536;12.688;2023-08-12T13:39:17;28.70;56.80
22153;DHT22;11242;50.536;12.688;2023-08-12T13:41:43;29.00;57.10
22153;DHT22;11242;50.536;12.688;2023-08-12T13:44:09;29.30;57.10
22153;DHT22;11242;50.536;12.688;2023-08-12T13:46:34;29.40;56.50
22153;DHT22;11242;50.536;12.688;2023-08-12T13:49:00;29.50;56.90
22153;DHT22;11242;50.536;12.688;2023-08-12T13:51:26;29.60;57.00
22153;DHT22;11242;50.536;12.688;2023-08-12T13:53:52;29.50;57.40
22153;DHT22;11242;50.536;12.688;2023-08-12T13:56:18;29.60;57.90
22153;DHT22;11242;50.536;12.688;2023-08-12T13:58:44;29.60;56.20
22153;DHT22;11242;50.536;12.688;2023-08-12T14:01:10;29.40;56.80
22153;DHT22;11242;50.536;12.688;2023-08-12T14:03:35;29.70;56.60
22153;DHT22;11242;50.536;12.688;2023-08-12T14:06:02;30.30;56.70
22153;DHT22;11242;50.536;12.688;2023-08-12T14:08:28;30.20;56.00
22153;DHT22;11242;50.536;12.688;2023-08-12T14:10:55;30.40;56.20
22153;DHT22;11242;50.536;12.688;2023-08-12T14:13:20;30.30;54.20
22153;DHT22;11242;50.536;12.688;2023-08-12T14:15:46;29.80;54.10
22153;DHT22;11242;50.536;12.688;2023-08-12T14:18:13;29.40;55.10
22153;DHT22;11242;50.536;12.688;2023-08-12T14:20:39;29.20;55.50
22153;DHT22;11242;50.536;12.688;2023-08-12T14:23:04;29.20;55.50
22153;DHT22;11242;50.536;12.688;2023-08-12T14:25:30;29.40;55.70
22153;DHT22;11242;50.536;12.688;2023-08-12T14:27:56;29.30;55.80
22153;DHT22;11242;50.536;12.688;2023-08-12T14:30:25;29.30;54.90
22153;DHT22;11242;50.536;12.688;2023-08-12T14:32:51;29.30;55.00
22153;DHT22;11242;50.536;12.688;2023-08-12T14:35:17;29.50;55.30
22153;DHT22;11242;50.536;12.688;2023-08-12T14:37:44;29.60;55.00
22153;DHT22;11242;50.536;12.688;2023-08-12T14:40:11;29.90;55.40
22153;DHT22;11242;50.536;12.688;2023-08-12T14:42:36;30.20;55.00
22153;DHT22;11242;50.536;12.688;2023-08-12T14:45:02;30.10;54.90
22153;DHT22;11242;50.536;12.688;2023-08-12T14:47:29;30.00;53.90
22153;DHT22;11242;50.536;12.688;2023-08-12T14:49:55;29.70;55.10
22153;DHT22;11242;50.536;12.688;2023-08-12T14:52:22;29.30;55.80
22153;DHT22;11242;50.536;12.688;2023-08-12T14:54:48;29.10;55.10
22153;DHT22;11242;50.536;12.688;2023-08-12T14:57:15;29.10;56.40
22153;DHT22;11242;50.536;12.688;2023-08-12T14:59:40;29.20;55.50
22153;DHT22;11242;50.536;12.688;2023-08-12T15:02:07;29.20;56.00
22153;DHT22;11242;50.536;12.688;2023-08-12T15:04:33;29.20;56.40
22153;DHT22;11242;50.536;12.688;2023-08-12T15:06:59;29.30;55.50
22153;DHT22;11242;50.536;12.688;2023-08-12T15:09:25;29.30;56.90
22153;DHT22;11242;50.536;12.688;2023-08-12T15:11:50;29.30;56.80
22153;DHT22;11242;50.536;12.688;2023-08-12T15:14:16;29.30;57.00
22153;DHT22;11242;50.536;12.688;2023-08-12T15:16:42;29.10;56.90
22153;DHT22;11242;50.536;12.688;2023-08-12T15:19:08;28.90;57.00
22153;DHT22;11242;50.536;12.688;2023-08-12T15:21:33;28.40;57.00
22153;DHT22;11242;50.536;12.688;2023-08-12T15:23:59;26.90;67.70
22153;DHT22;11242;50.536;12.688;2023-08-12T15:26:26;25.20;79.00